sensor_id;sensor_type;location;lat;lon;timestamp;pressure;altitude;pressure_sealevel;temperature;humidity
73341;BME280;61578;52.002;5.468;2023-12-29T00:00:27;100624.09;;;12.86;68.66
73341;BME280;61578;52.002;5.468;2023-12-29T00:00:58;100606.41;;;12.85;68.04
73341;BME280;61578;52.002;5.468;2023-12-29T00:01:31;100602.16;;;12.82;67.91
73341;BME280;61578;52.002;5.468;2023-12-29T00:02:02;100620.59;;;12.97;67.95
73341;BME280;61578;52.002;5.468;2023-12-29T00:02:33;100614.53;;;12.95;67.56
73341;BME280;61578;52.002;5.468;2023-12-29T00:03:04;100624.59;;;12.91;67.43
73341;BME280;61578;52.002;5.468;2023-12-29T00:03:35;100624.25;;;12.96;67.72
73341;BME280;61578;52.002;5.468;2023-12-29T00:04:06;100624.34;;;12.94;67.75
73341;BME280;61578;52.002;5.468;2023-12-29T00:04:37;100620.25;;;12.90;67.72
73341;BME280;61578;52.002;5.468;2023-12-29T00:05:07;100612.63;;;12.97;67.47
73341;BME280;61578;52.002;5.468;2023-12-29T00:05:38;100614.53;;;12.95;67.77
73341;BME280;61578;52.002;5.468;2023-12-29T00:06:09;100621.47;;;12.97;67.89
73341;BME280;61578;52.002;5.468;2023-12-29T00:06:40;100607.16;;;12.98;67.40
73341;BME280;61578;52.002;5.468;2023-12-29T00:07:11;100625.81;;;12.98;67.64
73341;BME280;61578;52.002;5.468;2023-12-29T00:07:43;100616.00;;;12.99;67.78
73341;BME280;61578;52.002;5.468;2023-12-29T00:08:16;100616.00;;;12.99;67.63
73341;BME280;61578;52.002;5.468;2023-12-29T00:08:46;100613.47;;;12.97;68.02
73341;BME280;61578;52.002;5.468;2023-12-29T00:09:18;100610.69;;;12.99;67.68
73341;BME280;61578;52.002;5.468;2023-12-29T00:09:51;100621.34;;;12.99;67.83
73341;BME280;61578;52.002;5.468;2023-12-29T00:10:22;100610.91;;;12.96;67.92
73341;BME280;61578;52.002;5.468;2023-12-29T00:10:53;100620.38;;;13.00;67.91
73341;BME280;61578;52.002;5.468;2023-12-29T00:11:24;100624.00;;;12.99;67.79
73341;BME280;61578;52.002;5.468;2023-12-29T00:11:54;100627.75;;;12.96;68.66
73341;BME280;61578;52.002;5.468;2023-12-29T00:12:25;100615.66;;;12.92;68.93
73341;BME280;61578;52.002;5.468;2023-12-29T00:12:56;100617.22;;;12.95;69.44
73341;BME280;61578;52.002;5.468;2023-12-29T00:13:27;100620.72;;;12.95;69.38
73341;BME280;61578;52.002;5.468;2023-12-29T00:13:58;100629.09;;;12.90;70.46
73341;BME280;61578;52.002;5.468;2023-12-29T00:14:28;100617.59;;;12.90;70.51
73341;BME280;61578;52.002;5.468;2023-12-29T00:14:59;100618.53;;;12.89;71.14
73341;BME280;61578;52.002;5.468;2023-12-29T00:15:30;100617.06;;;12.85;71.31
73341;BME280;61578;52.002;5.468;2023-12-29T00:16:01;100624.47;;;12.81;71.68
73341;BME280;61578;52.002;5.468;2023-12-29T00:16:32;100604.09;;;12.69;71.78
73341;BME280;61578;52.002;5.468;2023-12-29T00:17:03;100628.91;;;12.70;72.38
73341;BME280;61578;52.002;5.468;2023-12-29T00:17:34;100622.03;;;12.78;72.24
73341;BME280;61578;52.002;5.468;2023-12-29T00:18:07;100611.00;;;12.83;71.30
73341;BME280;61578;52.002;5.468;2023-12-29T00:18:38;100620.47;;;12.87;71.43
73341;BME280;61578;52.002;5.468;2023-12-29T00:19:09;100616.00;;;12.87;71.67
73341;BME280;61578;52.002;5.468;2023-12-29T00:19:41;100601.72;;;12.88;71.18
73341;BME280;61578;52.002;5.468;2023-12-29T00:20:11;100601.72;;;12.88;71.47
73341;BME280;61578;52.002;5.468;2023-12-29T00:20:42;100603.41;;;12.89;71.37
73341;BME280;61578;52.002;5.468;2023-12-29T00:21:13;100599.50;;;12.82;71.28
73341;BME280;61578;52.002;5.468;2023-12-29T00:21:44;100598.06;;;12.89;71.03
73341;BME280;61578;52.002;5.468;2023-12-29T00:22:15;100607.78;;;12.90;71.18
73341;BME280;61578;52.002;5.468;2023-12-29T00:22:45;100600.97;;;12.86;70.98
73341;BME280;61578;52.002;5.468;2023-12-29T00:23:16;100596.38;;;12.88;70.59
73341;BME280;61578;52.002;5.468;2023-12-29T00:23:47;100590.91;;;12.79;70.67
73341;BME280;61578;52.002;5.468;2023-12-29T00:24:18;100599.28;;;12.85;71.10
73341;BME280;61578;52.002;5.468;2023-12-29T00:24:49;100605.00;;;12.92;70.28
73341;BME280;61578;52.002;5.468;2023-12-29T00:25:20;100599.38;;;12.84;70.68
73341;BME280;61578;52.002;5.468;2023-12-29T00:25:51;100593.94;;;12.85;70.63
73341;BME280;61578;52.002;5.468;2023-12-29T00:26:22;100592.97;;;12.86;70.64
73341;BME280;61578;52.002;5.468;2023-12-29T00:26:53;100592.63;;;12.91;70.25
73341;BME280;61578;52.002;5.468;2023-12-29T00:27:24;100592.63;;;12.91;70.22
73341;BME280;61578;52.002;5.468;2023-12-29T00:27:54;100594.34;;;12.92;70.40
73341;BME280;61578;52.002;5.468;2023-12-29T00:28:28;100590.19;;;12.88;70.08
73341;BME280;61578;52.002;5.468;2023-12-29T00:28:59;100611.28;;;12.91;70.56
73341;BME280;61578;52.002;5.468;2023-12-29T00:29:30;100611.13;;;12.93;70.53
73341;BME280;61578;52.002;5.468;2023-12-29T00:30:03;100615.41;;;12.95;70.28
73341;BME280;61578;52.002;5.468;2023-12-29T00:30:38;100609.94;;;12.97;69.83
73341;BME280;61578;52.002;5.468;2023-12-29T00:31:16;100609.31;;;12.93;70.39
73341;BME280;61578;52.002;5.468;2023-12-29T00:31:46;100595.03;;;12.94;69.88
73341;BME280;61578;52.002;5.468;2023-12-29T00:32:17;100611.88;;;12.95;69.78
73341;BME280;61578;52.002;5.468;2023-12-29T00:32:48;100595.16;;;12.93;69.81
73341;BME280;61578;52.002;5.468;2023-12-29T00:33:18;100610.06;;;12.95;69.68
73341;BME280;61578;52.002;5.468;2023-12-29T00:33:49;100603.16;;;12.93;70.11
73341;BME280;61578;52.002;5.468;2023-12-29T00:34:23;100597.22;;;12.89;69.74
73341;BME280;61578;52.002;5.468;2023-12-29T00:34:53;100606.31;;;12.98;69.50
73341;BME280;61578;52.002;5.468;2023-12-29T00:35:24;100614.31;;;12.98;69.80
73341;BME280;61578;52.002;5.468;2023-12-29T00:35:55;100620.38;;;13.00;69.48
73341;BME280;61578;52.002;5.468;2023-12-29T00:36:25;100608.97;;;12.98;69.65
73341;BME280;61578;52.002;5.468;2023-12-29T00:36:57;100608.03;;;12.99;69.26
73341;BME280;61578;52.002;5.468;2023-12-29T00:37:27;100613.34;;;12.99;69.74
73341;BME280;61578;52.002;5.468;2023-12-29T00:37:58;100607.88;;;12.89;69.87
73341;BME280;61578;52.002;5.468;2023-12-29T00:38:29;100615.28;;;12.97;69.48
73341;BME280;61578;52.002;5.468;2023-12-29T00:39:00;100616.97;;;12.98;69.31
73341;BME280;61578;52.002;5.468;2023-12-29T00:39:30;100601.84;;;12.98;69.24
73341;BME280;61578;52.002;5.468;2023-12-29T00:40:09;100619.03;;;12.94;69.72
73341;BME280;61578;52.002;5.468;2023-12-29T00:40:40;100600.13;;;12.97;69.55
73341;BME280;61578;52.002;5.468;2023-12-29T00:41:10;100604.63;;;12.97;69.48
73341;BME280;61578;52.002;5.468;2023-12-29T00:41:41;100608.25;;;12.96;69.37
73341;BME280;61578;52.002;5.468;2023-12-29T00:42:12;100604.38;;;13.00;68.87
73341;BME280;61578;52.002;5.468;2023-12-29T00:42:43;100595.16;;;13.04;68.72
73341;BME280;61578;52.002;5.468;2023-12-29T00:43:16;100603.16;;;13.04;68.96
73341;BME280;61578;52.002;5.468;2023-12-29T00:43:47;100603.44;;;13.01;68.92
73341;BME280;61578;52.002;5.468;2023-12-29T00:44:18;100603.31;;;13.02;68.52
73341;BME280;61578;52.002;5.468;2023-12-29T00:44:48;100588.00;;;12.93;68.77
73341;BME280;61578;52.002;5.468;2023-12-29T00:45:19;100605.25;;;13.00;69.06
73341;BME280;61578;52.002;5.468;2023-12-29T00:45:51;100604.38;;;13.00;68.72
73341;BME280;61578;52.002;5.468;2023-12-29T00:46:22;100601.59;;;13.01;68.82
73341;BME280;61578;52.002;5.468;2023-12-29T00:46:53;100599.66;;;13.03;68.85
73341;BME280;61578;52.002;5.468;2023-12-29T00:47:24;100596.88;;;13.05;68.67
73341;BME280;61578;52.002;5.468;2023-12-29T00:47:54;100596.88;;;13.05;68.49
73341;BME280;61578;52.002;5.468;2023-12-29T00:48:25;100592.03;;;13.10;68.53
73341;BME280;61578;52.002;5.468;2023-12-29T00:48:56;100575.06;;;12.88;67.85
73341;BME280;61578;52.002;5.468;2023-12-29T00:49:27;100578.47;;;13.02;68.18
73341;BME280;61578;52.002;5.468;2023-12-29T00:49:57;100587.78;;;13.07;68.10
73341;BME280;61578;52.002;5.468;2023-12-29T00:50:37;100588.75;;;13.06;68.36
73341;BME280;61578;52.002;5.468;2023-12-29T00:51:10;100569.03;;;13.09;68.06
73341;BME280;61578;52.002;5.468;2023-12-29T00:51:41;100575.19;;;13.09;67.76
73341;BME280;61578;52.002;5.468;2023-12-29T00:52:14;100575.19;;;13.09;68.26
73341;BME280;61578;52.002;5.468;2023-12-29T00:52:44;100574.13;;;13.12;67.94
73341;BME280;61578;52.002;5.468;2023-12-29T00:53:15;100566.25;;;13.10;68.03
73341;BME280;61578;52.002;5.468;2023-12-29T00:53:46;100576.78;;;13.12;67.80
73341;BME280;61578;52.002;5.468;2023-12-29T00:54:16;100586.25;;;13.16;67.74
73341;BME280;61578;52.002;5.468;2023-12-29T00:54:47;100571.31;;;13.13;67.73
73341;BME280;61578;52.002;5.468;2023-12-29T00:55:19;100583.69;;;13.14;68.00
73341;BME280;61578;52.002;5.468;2023-12-29T00:55:50;100568.06;;;13.10;67.45
73341;BME280;61578;52.002;5.468;2023-12-29T00:56:21;100567.81;;;13.13;67.54
73341;BME280;61578;52.002;5.468;2023-12-29T00:56:51;100578.88;;;13.19;67.30
73341;BME280;61578;52.002;5.468;2023-12-29T00:57:22;100575.22;;;13.20;67.40
73341;BME280;61578;52.002;5.468;2023-12-29T00:57:53;100576.81;;;13.23;67.07
73341;BME280;61578;52.002;5.468;2023-12-29T00:58:24;100580.44;;;13.22;67.31
73341;BME280;61578;52.002;5.468;2023-12-29T00:58:55;100585.78;;;13.22;67.56
73341;BME280;61578;52.002;5.468;2023-12-29T00:59:25;100570.03;;;13.19;67.26
73341;BME280;61578;52.002;5.468;2023-12-29T00:59:56;100581.16;;;13.24;67.02
73341;BME280;61578;52.002;5.468;2023-12-29T01:00:27;100569.28;;;13.17;67.22
73341;BME280;61578;52.002;5.468;2023-12-29T01:00:58;100582.16;;;13.23;67.56
73341;BME280;61578;52.002;5.468;2023-12-29T01:01:33;100579.59;;;13.21;67.28
73341;BME280;61578;52.002;5.468;2023-12-29T01:02:06;100569.28;;;13.17;67.55
73341;BME280;61578;52.002;5.468;2023-12-29T01:02:37;100576.19;;;13.19;67.58
73341;BME280;61578;52.002;5.468;2023-12-29T01:03:07;100578.38;;;13.14;67.99
73341;BME280;61578;52.002;5.468;2023-12-29T01:03:38;100577.41;;;13.15;67.63
73341;BME280;61578;52.002;5.468;2023-12-29T01:04:09;100582.50;;;13.18;67.65
73341;BME280;61578;52.002;5.468;2023-12-29T01:04:39;100586.75;;;13.21;67.72
73341;BME280;61578;52.002;5.468;2023-12-29T01:05:10;100581.53;;;13.19;67.69
73341;BME280;61578;52.002;5.468;2023-12-29T01:05:44;100582.63;;;13.17;67.61
73341;BME280;61578;52.002;5.468;2023-12-29T01:06:14;100580.19;;;13.14;67.84
73341;BME280;61578;52.002;5.468;2023-12-29T01:06:45;100575.94;;;13.11;67.76
73341;BME280;61578;52.002;5.468;2023-12-29T01:07:16;100571.94;;;13.17;67.91
73341;BME280;61578;52.002;5.468;2023-12-29T01:07:46;100572.56;;;13.20;67.34
73341;BME280;61578;52.002;5.468;2023-12-29T01:08:17;100573.53;;;13.19;67.71
73341;BME280;61578;52.002;5.468;2023-12-29T01:08:48;100556.69;;;13.19;68.08
73341;BME280;61578;52.002;5.468;2023-12-29T01:09:19;100563.09;;;13.16;67.90
73341;BME280;61578;52.002;5.468;2023-12-29T01:09:50;100564.81;;;13.17;68.13
73341;BME280;61578;52.002;5.468;2023-12-29T01:10:21;100561.28;;;13.17;68.09
73341;BME280;61578;52.002;5.468;2023-12-29T01:10:52;100563.97;;;13.17;67.98
73341;BME280;61578;52.002;5.468;2023-12-29T01:11:23;100559.81;;;13.13;67.84
73341;BME280;61578;52.002;5.468;2023-12-29T01:11:53;100573.03;;;13.14;68.26
73341;BME280;61578;52.002;5.468;2023-12-29T01:12:25;100553.25;;;13.06;68.43
73341;BME280;61578;52.002;5.468;2023-12-29T01:12:55;100572.19;;;13.14;68.09
73341;BME280;61578;52.002;5.468;2023-12-29T01:13:26;100568.31;;;13.18;68.09
73341;BME280;61578;52.002;5.468;2023-12-29T01:13:57;100568.44;;;13.16;68.19
73341;BME280;61578;52.002;5.468;2023-12-29T01:14:27;100578.88;;;13.19;68.04
73341;BME280;61578;52.002;5.468;2023-12-29T01:14:58;100583.47;;;13.17;68.07
73341;BME280;61578;52.002;5.468;2023-12-29T01:15:29;100563.31;;;13.13;68.25
73341;BME280;61578;52.002;5.468;2023-12-29T01:16:00;100564.81;;;13.17;68.16
73341;BME280;61578;52.002;5.468;2023-12-29T01:16:30;100573.41;;;13.21;67.80
73341;BME280;61578;52.002;5.468;2023-12-29T01:17:01;100578.88;;;13.19;67.91
73341;BME280;61578;52.002;5.468;2023-12-29T01:17:32;100572.69;;;13.19;68.29
73341;BME280;61578;52.002;5.468;2023-12-29T01:18:06;100567.34;;;13.19;68.00
73341;BME280;61578;52.002;5.468;2023-12-29T01:18:39;100572.06;;;13.15;68.06
73341;BME280;61578;52.002;5.468;2023-12-29T01:19:13;100578.03;;;13.19;68.09
73341;BME280;61578;52.002;5.468;2023-12-29T01:19:46;100557.84;;;13.04;68.40
73341;BME280;61578;52.002;5.468;2023-12-29T01:20:17;100564.91;;;13.16;68.69
73341;BME280;61578;52.002;5.468;2023-12-29T01:20:48;100577.41;;;13.15;68.30
73341;BME280;61578;52.002;5.468;2023-12-29T01:21:18;100558.63;;;13.17;68.31
73341;BME280;61578;52.002;5.468;2023-12-29T01:21:49;100578.03;;;13.19;68.18
73341;BME280;61578;52.002;5.468;2023-12-29T01:22:20;100571.22;;;13.15;68.16
73341;BME280;61578;52.002;5.468;2023-12-29T01:22:54;100566.84;;;13.14;67.94
73341;BME280;61578;52.002;5.468;2023-12-29T01:23:24;100556.31;;;13.12;68.12
73341;BME280;61578;52.002;5.468;2023-12-29T01:23:56;100566.50;;;13.18;68.35
73341;BME280;61578;52.002;5.468;2023-12-29T01:24:27;100574.00;;;13.24;68.20
73341;BME280;61578;52.002;5.468;2023-12-29T01:25:00;100558.63;;;13.17;67.85
73341;BME280;61578;52.002;5.468;2023-12-29T01:25:31;100573.31;;;13.22;67.87
73341;BME280;61578;52.002;5.468;2023-12-29T01:26:02;100571.50;;;13.23;68.36
73341;BME280;61578;52.002;5.468;2023-12-29T01:26:39;100568.44;;;13.16;68.30
73341;BME280;61578;52.002;5.468;2023-12-29T01:27:10;100557.53;;;13.19;68.20
73341;BME280;61578;52.002;5.468;2023-12-29T01:27:40;100564.91;;;13.16;68.41
73341;BME280;61578;52.002;5.468;2023-12-29T01:28:11;100572.44;;;13.22;68.44
73341;BME280;61578;52.002;5.468;2023-12-29T01:28:47;100557.16;;;13.13;68.32
73341;BME280;61578;52.002;5.468;2023-12-29T01:29:18;100568.81;;;13.23;68.03
73341;BME280;61578;52.002;5.468;2023-12-29T01:29:49;100593.28;;;13.28;67.58
73341;BME280;61578;52.002;5.468;2023-12-29T01:30:19;100578.47;;;13.35;67.42
73341;BME280;61578;52.002;5.468;2023-12-29T01:30:59;100551.47;;;13.29;67.54
73341;BME280;61578;52.002;5.468;2023-12-29T01:31:30;100564.56;;;13.32;67.62
73341;BME280;61578;52.002;5.468;2023-12-29T01:32:01;100574.50;;;13.30;67.65
73341;BME280;61578;52.002;5.468;2023-12-29T01:32:33;100572.91;;;13.27;67.70
73341;BME280;61578;52.002;5.468;2023-12-29T01:33:05;100559.47;;;13.17;67.77
73341;BME280;61578;52.002;5.468;2023-12-29T01:33:35;100567.47;;;13.29;67.88
73341;BME280;61578;52.002;5.468;2023-12-29T01:34:06;100580.06;;;13.26;68.16
73341;BME280;61578;52.002;5.468;2023-12-29T01:34:37;100566.63;;;13.28;67.73
73341;BME280;61578;52.002;5.468;2023-12-29T01:35:08;100573.66;;;13.29;67.74
73341;BME280;61578;52.002;5.468;2023-12-29T01:35:39;100561.28;;;13.28;67.81
73341;BME280;61578;52.002;5.468;2023-12-29T01:36:17;100563.72;;;13.20;67.88
73341;BME280;61578;52.002;5.468;2023-12-29T01:36:49;100566.84;;;13.25;67.98
73341;BME280;61578;52.002;5.468;2023-12-29T01:37:19;100561.41;;;13.26;67.78
73341;BME280;61578;52.002;5.468;2023-12-29T01:37:50;100557.16;;;13.24;68.26
73341;BME280;61578;52.002;5.468;2023-12-29T01:38:21;100543.81;;;13.24;68.14
73341;BME280;61578;52.002;5.468;2023-12-29T01:38:52;100565.41;;;13.21;68.09
73341;BME280;61578;52.002;5.468;2023-12-29T01:39:22;100567.13;;;13.22;68.02
73341;BME280;61578;52.002;5.468;2023-12-29T01:39:53;100537.03;;;13.09;67.73
73341;BME280;61578;52.002;5.468;2023-12-29T01:40:24;100560.94;;;13.21;68.10
73341;BME280;61578;52.002;5.468;2023-12-29T01:40:55;100538.00;;;13.08;68.26
73341;BME280;61578;52.002;5.468;2023-12-29T01:41:26;100554.88;;;13.19;68.33
73341;BME280;61578;52.002;5.468;2023-12-29T01:41:56;100553.06;;;13.20;68.14
73341;BME280;61578;52.002;5.468;2023-12-29T01:42:27;100545.41;;;13.15;68.37
73341;BME280;61578;52.002;5.468;2023-12-29T01:42:58;100558.84;;;13.14;68.60
73341;BME280;61578;52.002;5.468;2023-12-29T01:43:29;100559.59;;;13.16;68.51
73341;BME280;61578;52.002;5.468;2023-12-29T01:44:31;100560.22;;;13.19;68.03
73341;BME280;61578;52.002;5.468;2023-12-29T01:45:02;100566.97;;;13.23;67.86
73341;BME280;61578;52.002;5.468;2023-12-29T01:45:33;100561.91;;;13.20;68.07
73341;BME280;61578;52.002;5.468;2023-12-29T01:46:04;100557.66;;;13.18;68.15
73341;BME280;61578;52.002;5.468;2023-12-29T01:46:35;100552.09;;;13.21;67.96
73341;BME280;61578;52.002;5.468;2023-12-29T01:47:13;100554.03;;;13.19;68.28
73341;BME280;61578;52.002;5.468;2023-12-29T01:47:47;100558.63;;;13.17;68.39
73341;BME280;61578;52.002;5.468;2023-12-29T01:48:19;100552.78;;;13.12;68.29
73341;BME280;61578;52.002;5.468;2023-12-29T01:48:50;100558.63;;;13.17;68.17
73341;BME280;61578;52.002;5.468;2023-12-29T01:49:21;100545.66;;;13.12;68.31
73341;BME280;61578;52.002;5.468;2023-12-29T01:49:53;100568.56;;;13.15;68.16
73341;BME280;61578;52.002;5.468;2023-12-29T01:50:24;100557.97;;;13.13;68.32
73341;BME280;61578;52.002;5.468;2023-12-29T01:50:58;100550.88;;;13.14;68.49
73341;BME280;61578;52.002;5.468;2023-12-29T01:51:32;100550.25;;;13.10;68.23
73341;BME280;61578;52.002;5.468;2023-12-29T01:52:04;100560.91;;;13.10;68.69
73341;BME280;61578;52.002;5.468;2023-12-29T01:52:35;100572.75;;;13.06;68.48
73341;BME280;61578;52.002;5.468;2023-12-29T01:53:07;100535.94;;;13.00;68.41
73341;BME280;61578;52.002;5.468;2023-12-29T01:53:38;100555.31;;;13.13;68.38
73341;BME280;61578;52.002;5.468;2023-12-29T01:54:10;100556.94;;;13.16;68.15
73341;BME280;61578;52.002;5.468;2023-12-29T01:54:46;100565.16;;;13.13;68.51
73341;BME280;61578;52.002;5.468;2023-12-29T01:55:20;100554.38;;;13.14;68.43
73341;BME280;61578;52.002;5.468;2023-12-29T01:55:52;100571.69;;;13.09;68.27
73341;BME280;61578;52.002;5.468;2023-12-29T01:56:23;100578.47;;;13.13;68.31
73341;BME280;61578;52.002;5.468;2023-12-29T01:56:59;100576.78;;;13.12;68.23
73341;BME280;61578;52.002;5.468;2023-12-29T01:57:32;100569.75;;;13.11;68.41
73341;BME280;61578;52.002;5.468;2023-12-29T01:58:05;100578.72;;;13.10;68.79
73341;BME280;61578;52.002;5.468;2023-12-29T01:58:37;100576.91;;;13.10;68.22
73341;BME280;61578;52.002;5.468;2023-12-29T01:59:07;100571.31;;;13.02;68.63
73341;BME280;61578;52.002;5.468;2023-12-29T01:59:39;100567.44;;;13.06;68.78
73341;BME280;61578;52.002;5.468;2023-12-29T02:00:11;100577.00;;;13.09;68.80
73341;BME280;61578;52.002;5.468;2023-12-29T02:00:43;100578.94;;;13.07;68.47
73341;BME280;61578;52.002;5.468;2023-12-29T02:01:18;100589.59;;;13.07;69.13
73341;BME280;61578;52.002;5.468;2023-12-29T02:01:50;100570.22;;;13.05;68.76
73341;BME280;61578;52.002;5.468;2023-12-29T02:02:21;100576.91;;;13.10;68.81
73341;BME280;61578;52.002;5.468;2023-12-29T02:02:53;100581.16;;;13.13;68.85
73341;BME280;61578;52.002;5.468;2023-12-29T02:03:24;100579.56;;;13.10;68.96
73341;BME280;61578;52.002;5.468;2023-12-29T02:03:56;100570.72;;;13.10;69.09
73341;BME280;61578;52.002;5.468;2023-12-29T02:04:28;100581.25;;;13.11;68.82
73341;BME280;61578;52.002;5.468;2023-12-29T02:05:03;100577.00;;;13.09;68.76
73341;BME280;61578;52.002;5.468;2023-12-29T02:05:38;100572.31;;;13.12;68.77
73341;BME280;61578;52.002;5.468;2023-12-29T02:06:10;100577.88;;;13.09;68.96
73341;BME280;61578;52.002;5.468;2023-12-29T02:06:42;100577.75;;;13.11;69.04
73341;BME280;61578;52.002;5.468;2023-12-29T02:07:16;100580.53;;;13.09;69.00
73341;BME280;61578;52.002;5.468;2023-12-29T02:07:51;100558.97;;;13.01;69.40
73341;BME280;61578;52.002;5.468;2023-12-29T02:08:23;100585.34;;;13.04;69.80
73341;BME280;61578;52.002;5.468;2023-12-29T02:08:54;100577.50;;;13.03;69.58
73341;BME280;61578;52.002;5.468;2023-12-29T02:09:25;100551.31;;;12.97;69.58
73341;BME280;61578;52.002;5.468;2023-12-29T02:10:00;100570.72;;;12.99;69.52
73341;BME280;61578;52.002;5.468;2023-12-29T02:10:31;100563.56;;;12.88;69.79
73341;BME280;61578;52.002;5.468;2023-12-29T02:11:03;100585.22;;;12.95;69.60
73341;BME280;61578;52.002;5.468;2023-12-29T02:11:35;100592.03;;;12.99;69.74
73341;BME280;61578;52.002;5.468;2023-12-29T02:12:06;100589.47;;;12.97;69.88
73341;BME280;61578;52.002;5.468;2023-12-29T02:12:37;100571.31;;;12.91;69.66
73341;BME280;61578;52.002;5.468;2023-12-29T02:13:07;100579.66;;;12.98;70.01
73341;BME280;61578;52.002;5.468;2023-12-29T02:13:38;100589.13;;;12.90;69.83
73341;BME280;61578;52.002;5.468;2023-12-29T02:14:10;100570.72;;;12.99;69.55
73341;BME280;61578;52.002;5.468;2023-12-29T02:14:41;100566.22;;;12.99;69.60
73341;BME280;61578;52.002;5.468;2023-12-29T02:15:12;100584.50;;;13.04;69.77
73341;BME280;61578;52.002;5.468;2023-12-29T02:15:43;100588.28;;;13.01;69.54
73341;BME280;61578;52.002;5.468;2023-12-29T02:16:22;100574.22;;;12.99;69.74
73341;BME280;61578;52.002;5.468;2023-12-29T02:17:38;100529.16;;;12.85;70.13
73341;BME280;61578;52.002;5.468;2023-12-29T02:18:22;100584.88;;;12.99;70.04
73341;BME280;61578;52.002;5.468;2023-12-29T02:18:59;100560.38;;;12.83;70.43
73341;BME280;61578;52.002;5.468;2023-12-29T02:19:41;100582.81;;;12.92;70.30
73341;BME280;61578;52.002;5.468;2023-12-29T02:20:14;100572.88;;;12.94;70.37
73341;BME280;61578;52.002;5.468;2023-12-29T02:20:45;100590.81;;;12.92;70.58
73341;BME280;61578;52.002;5.468;2023-12-29T02:21:16;100585.72;;;12.88;70.76
73341;BME280;61578;52.002;5.468;2023-12-29T02:21:47;100590.09;;;12.89;71.10
73341;BME280;61578;52.002;5.468;2023-12-29T02:22:17;100571.31;;;12.91;70.77
73341;BME280;61578;52.002;5.468;2023-12-29T02:22:48;100559.53;;;12.82;70.97
73341;BME280;61578;52.002;5.468;2023-12-29T02:23:19;100582.94;;;12.90;70.91
73341;BME280;61578;52.002;5.468;2023-12-29T02:23:50;100579.66;;;12.98;70.83
73341;BME280;61578;52.002;5.468;2023-12-29T02:24:21;100579.53;;;12.88;70.80
73341;BME280;61578;52.002;5.468;2023-12-29T02:24:51;100580.16;;;12.92;70.64
73341;BME280;61578;52.002;5.468;2023-12-29T02:25:25;100577.59;;;12.90;70.85
73341;BME280;61578;52.002;5.468;2023-12-29T02:26:04;100576.88;;;12.88;70.91
73341;BME280;61578;52.002;5.468;2023-12-29T02:26:46;100583.41;;;12.84;71.37
73341;BME280;61578;52.002;5.468;2023-12-29T02:28:26;100589.47;;;12.86;71.30
73341;BME280;61578;52.002;5.468;2023-12-29T02:29:04;100592.13;;;12.86;71.59
73341;BME280;61578;52.002;5.468;2023-12-29T02:31:00;100594.53;;;12.78;72.06
73341;BME280;61578;52.002;5.468;2023-12-29T02:31:42;100596.97;;;12.81;72.31
73341;BME280;61578;52.002;5.468;2023-12-29T02:32:22;100584.00;;;12.76;72.25
73341;BME280;61578;52.002;5.468;2023-12-29T02:33:01;100584.97;;;12.75;72.47
73341;BME280;61578;52.002;5.468;2023-12-29T02:33:40;100587.50;;;12.77;72.37
73341;BME280;61578;52.002;5.468;2023-12-29T02:34:15;100598.06;;;12.78;72.18
73341;BME280;61578;52.002;5.468;2023-12-29T02:34:50;100600.19;;;12.62;72.78
73341;BME280;61578;52.002;5.468;2023-12-29T02:35:28;100595.06;;;12.48;73.58
73341;BME280;61578;52.002;5.468;2023-12-29T02:36:03;100601.94;;;12.39;74.08
73341;BME280;61578;52.002;5.468;2023-12-29T02:36:36;100593.56;;;12.33;74.38
73341;BME280;61578;52.002;5.468;2023-12-29T02:37:17;100586.66;;;12.30;74.42
73341;BME280;61578;52.002;5.468;2023-12-29T02:37:49;100569.31;;;12.25;74.77
73341;BME280;61578;52.002;5.468;2023-12-29T02:38:20;100577.09;;;12.28;75.55
73341;BME280;61578;52.002;5.468;2023-12-29T02:38:51;100584.44;;;12.24;75.97
73341;BME280;61578;52.002;5.468;2023-12-29T02:39:22;100561.78;;;12.07;76.28
73341;BME280;61578;52.002;5.468;2023-12-29T02:39:56;100588.19;;;12.22;76.74
73341;BME280;61578;52.002;5.468;2023-12-29T02:40:29;100587.38;;;12.21;76.95
73341;BME280;61578;52.002;5.468;2023-12-29T02:41:03;100584.41;;;12.13;77.53
73341;BME280;61578;52.002;5.468;2023-12-29T02:41:38;100589.84;;;12.11;77.98
73341;BME280;61578;52.002;5.468;2023-12-29T02:42:09;100585.09;;;12.04;78.82
73341;BME280;61578;52.002;5.468;2023-12-29T02:42:47;100588.81;;;12.01;79.52
73341;BME280;61578;52.002;5.468;2023-12-29T02:43:18;100568.00;;;11.95;79.49
73341;BME280;61578;52.002;5.468;2023-12-29T02:43:49;100576.19;;;11.92;80.13
73341;BME280;61578;52.002;5.468;2023-12-29T02:44:19;100573.78;;;11.89;80.87
73341;BME280;61578;52.002;5.468;2023-12-29T02:44:50;100567.53;;;11.77;81.00
73341;BME280;61578;52.002;5.468;2023-12-29T02:45:21;100568.28;;;11.79;81.41
73341;BME280;61578;52.002;5.468;2023-12-29T02:45:52;100561.47;;;11.75;81.76
73341;BME280;61578;52.002;5.468;2023-12-29T02:46:23;100567.34;;;11.81;81.79
73341;BME280;61578;52.002;5.468;2023-12-29T02:46:53;100570.38;;;11.74;81.87
73341;BME280;61578;52.002;5.468;2023-12-29T02:47:25;100570.38;;;11.74;81.92
73341;BME280;61578;52.002;5.468;2023-12-29T02:47:56;100564.03;;;11.64;82.11
73341;BME280;61578;52.002;5.468;2023-12-29T02:48:27;100569.75;;;11.71;82.64
73341;BME280;61578;52.002;5.468;2023-12-29T02:48:58;100569.75;;;11.71;81.99
73341;BME280;61578;52.002;5.468;2023-12-29T02:49:32;100575.22;;;11.69;82.36
73341;BME280;61578;52.002;5.468;2023-12-29T02:50:05;100562.97;;;11.67;82.28
73341;BME280;61578;52.002;5.468;2023-12-29T02:50:36;100563.72;;;11.69;82.85
73341;BME280;61578;52.002;5.468;2023-12-29T02:51:10;100560.44;;;11.65;82.60